Time,TemperatureF,DewpointF,PressureIn,WindDirection,WindDirectionDegrees,WindSpeedMPH,WindSpeedGustMPH,Humidity,HourlyPrecipIn,Conditions,Clouds,dailyrainin,SoftwareType,DateUTC
2013-04-03 00:02:00,53.6,49.5,30.12,WSW,237,0.0,3.0,86,0.00,,,0.01,meteohub,2013-04-03 07:02:00,
2013-04-03 00:07:00,53.4,49.3,30.12,WSW,237,1.0,2.0,86,0.00,,,0.00,meteohub,2013-04-03 07:07:00,
2013-04-03 00:12:00,53.1,48.9,30.12,WSW,237,2.0,2.0,86,0.00,,,0.00,meteohub,2013-04-03 07:12:00,
2013-04-03 00:17:00,52.3,48.6,30.12,WSW,237,0.0,2.0,87,0.00,,,0.00,meteohub,2013-04-03 07:17:00,
2013-04-03 00:22:00,52.2,48.7,30.12,WSW,237,0.0,2.0,88,0.00,,,0.00,meteohub,2013-04-03 07:22:00,
2013-04-03 00:27:00,52.0,48.6,30.12,WSW,237,0.0,2.0,88,0.00,,,0.00,meteohub,2013-04-03 07:27:00,
2013-04-03 00:32:00,51.6,48.2,30.12,WSW,237,0.0,2.0,88,0.00,,,0.00,meteohub,2013-04-03 07:32:00,
2013-04-03 00:37:00,51.4,48.0,30.13,WSW,237,0.0,0.0,88,0.00,,,0.00,meteohub,2013-04-03 07:37:00,
2013-04-03 00:42:00,50.9,47.8,30.13,WSW,237,0.0,0.0,89,0.00,,,0.00,meteohub,2013-04-03 07:42:00,
2013-04-03 00:47:00,50.5,47.7,30.13,SW,236,2.0,2.0,90,0.00,,,0.00,meteohub,2013-04-03 07:47:00,
2013-04-03 00:52:00,50.0,47.5,30.13,WSW,237,0.0,2.0,91,0.00,,,0.00,meteohub,2013-04-03 07:52:00,
2013-04-03 00:57:00,49.8,47.7,30.13,WSW,237,0.0,2.0,92,0.00,,,0.00,meteohub,2013-04-03 07:57:00,
2013-04-03 01:03:00,49.5,47.3,30.13,SW,236,0.0,2.0,92,0.00,,,0.00,meteohub,2013-04-03 08:03:00,
2013-04-03 01:07:00,49.3,47.3,30.13,WSW,237,0.0,2.0,93,0.00,,,0.00,meteohub,2013-04-03 08:07:00,
2013-04-03 01:13:00,48.9,46.8,30.13,WSW,237,0.0,2.0,92,0.00,,,0.00,meteohub,2013-04-03 08:13:00,
2013-04-03 01:18:00,48.9,46.8,30.13,WSW,237,0.0,2.0,92,0.00,,,0.00,meteohub,2013-04-03 08:18:00,
2013-04-03 01:23:00,48.7,46.6,30.13,WSW,237,0.0,0.0,92,0.00,,,0.00,meteohub,2013-04-03 08:23:00,
2013-04-03 01:28:00,48.6,46.4,30.13,WSW,237,0.0,0.0,92,0.00,,,0.00,meteohub,2013-04-03 08:28:00,
2013-04-03 01:33:00,48.6,46.4,30.13,WSW,237,0.0,0.0,92,0.00,,,0.00,meteohub,2013-04-03 08:33:00,
2013-04-03 01:38:00,48.4,46.2,30.13,WSW,237,0.0,0.0,92,0.00,,,0.00,meteohub,2013-04-03 08:38:00,
2013-04-03 01:43:00,48.0,45.9,30.13,SW,236,0.0,0.0,92,0.00,,,0.00,meteohub,2013-04-03 08:43:00,
2013-04-03 01:48:00,47.8,45.9,30.13,SW,236,2.0,0.0,93,0.00,,,0.00,meteohub,2013-04-03 08:48:00,
2013-04-03 01:53:00,47.7,46.0,30.13,SW,236,3.0,3.0,94,0.00,,,0.00,meteohub,2013-04-03 08:53:00,
2013-04-03 01:58:00,47.7,46.2,30.12,SW,236,3.0,4.0,95,0.00,,,0.00,meteohub,2013-04-03 08:58:00,
2013-04-03 02:03:00,47.5,46.0,30.12,WSW,237,2.0,4.0,95,0.00,,,0.00,meteohub,2013-04-03 09:03:00,
2013-04-03 02:08:00,47.1,45.5,30.12,WSW,237,2.0,4.0,94,0.00,,,0.00,meteohub,2013-04-03 09:08:00,
2013-04-03 02:13:00,46.9,45.5,30.12,SW,236,1.0,4.0,95,0.00,,,0.00,meteohub,2013-04-03 09:13:00,
2013-04-03 02:18:00,46.9,45.5,30.12,SW,236,2.0,3.0,95,0.00,,,0.00,meteohub,2013-04-03 09:18:00,
2013-04-03 02:23:00,46.9,45.9,30.12,WSW,237,4.0,4.0,96,0.00,,,0.00,meteohub,2013-04-03 09:23:00,
2013-04-03 02:28:00,46.9,45.9,30.12,SW,236,2.0,4.0,96,0.00,,,0.00,meteohub,2013-04-03 09:28:00,
2013-04-03 02:33:00,46.9,45.9,30.12,NNE,17,3.0,4.0,96,0.00,,,0.00,meteohub,2013-04-03 09:33:00,
2013-04-03 02:38:00,46.9,45.9,30.11,NNE,32,3.0,4.0,96,0.00,,,0.00,meteohub,2013-04-03 09:38:00,
2013-04-03 02:43:00,47.1,46.0,30.11,NNE,32,1.0,4.0,96,0.00,,,0.00,meteohub,2013-04-03 09:43:00,
2013-04-03 02:48:00,46.9,45.9,30.11,NNE,32,2.0,4.0,96,0.00,,,0.00,meteohub,2013-04-03 09:48:00,
2013-04-03 02:53:00,46.9,46.2,30.11,NE,34,3.0,4.0,97,0.00,,,0.00,meteohub,2013-04-03 09:53:00,
2013-04-03 02:58:00,47.7,46.9,30.11,NE,38,1.0,4.0,97,0.00,,,0.00,meteohub,2013-04-03 09:58:00,
2013-04-03 03:03:00,47.8,46.9,30.11,NE,38,2.0,4.0,97,0.00,,,0.00,meteohub,2013-04-03 10:03:00,
2013-04-03 03:08:00,48.0,47.1,30.11,NE,38,1.0,4.0,97,0.00,,,0.00,meteohub,2013-04-03 10:08:00,
2013-04-03 03:13:00,48.4,47.5,30.11,NE,38,2.0,3.0,97,0.00,,,0.00,meteohub,2013-04-03 10:13:00,
2013-04-03 03:18:00,48.4,47.5,30.11,NE,38,2.0,4.0,97,0.00,,,0.00,meteohub,2013-04-03 10:18:00,
2013-04-03 03:23:00,48.4,47.5,30.11,NE,38,4.0,4.0,97,0.00,,,0.00,meteohub,2013-04-03 10:23:00,
2013-04-03 03:28:00,48.2,47.3,30.10,NE,38,3.0,4.0,97,0.00,,,0.00,meteohub,2013-04-03 10:28:00,
2013-04-03 03:33:00,48.0,46.9,30.11,NE,38,3.0,4.0,96,0.00,,,0.00,meteohub,2013-04-03 10:33:00,
2013-04-03 03:38:00,47.8,46.8,30.11,NE,38,2.0,4.0,96,0.00,,,0.00,meteohub,2013-04-03 10:38:00,
2013-04-03 03:43:00,47.7,46.6,30.11,NE,38,0.0,4.0,96,0.00,,,0.00,meteohub,2013-04-03 10:43:00,
2013-04-03 03:48:00,47.7,46.9,30.10,NE,38,0.0,4.0,97,0.00,,,0.00,meteohub,2013-04-03 10:48:00,
2013-04-03 03:53:00,47.8,46.9,30.11,NE,38,2.0,4.0,97,0.00,,,0.00,meteohub,2013-04-03 10:53:00,
2013-04-03 03:58:00,47.3,46.2,30.11,NE,38,2.0,3.0,96,0.00,,,0.00,meteohub,2013-04-03 10:58:00,
2013-04-03 04:03:00,47.3,46.2,30.11,NE,38,1.0,3.0,96,0.00,,,0.00,meteohub,2013-04-03 11:03:00,
2013-04-03 04:08:00,46.9,45.9,30.10,NE,38,2.0,3.0,96,0.00,,,0.00,meteohub,2013-04-03 11:08:00,
2013-04-03 04:13:00,46.8,45.7,30.11,NE,38,2.0,3.0,96,0.00,,,0.00,meteohub,2013-04-03 11:13:00,
2013-04-03 04:18:00,47.1,46.4,30.11,NE,38,1.0,3.0,97,0.00,,,0.00,meteohub,2013-04-03 11:18:00,
2013-04-03 04:24:00,47.3,46.6,30.11,NE,38,0.0,3.0,97,0.00,,,0.00,meteohub,2013-04-03 11:24:00,
2013-04-03 04:29:00,47.3,46.6,30.11,NE,38,0.0,3.0,97,0.00,,,0.00,meteohub,2013-04-03 11:29:00,
2013-04-03 04:34:00,47.1,46.4,30.11,NE,38,0.0,3.0,97,0.00,,,0.00,meteohub,2013-04-03 11:34:00,
2013-04-03 04:39:00,46.9,45.9,30.11,NE,38,2.0,2.0,96,0.00,,,0.00,meteohub,2013-04-03 11:39:00,
2013-04-03 04:44:00,46.6,45.5,30.10,NE,38,2.0,2.0,96,0.00,,,0.00,meteohub,2013-04-03 11:44:00,
2013-04-03 04:49:00,46.2,45.1,30.10,NE,38,2.0,2.0,96,0.00,,,0.00,meteohub,2013-04-03 11:49:00,
2013-04-03 04:54:00,45.9,44.8,30.11,NE,38,2.0,3.0,96,0.00,,,0.00,meteohub,2013-04-03 11:54:00,
2013-04-03 04:59:00,45.7,44.6,30.10,NE,38,3.0,3.0,96,0.00,,,0.00,meteohub,2013-04-03 11:59:00,
2013-04-03 05:04:00,45.9,45.1,30.10,NE,38,2.0,4.0,97,0.00,,,0.00,meteohub,2013-04-03 12:04:00,
2013-04-03 05:09:00,45.9,45.1,30.10,NE,38,2.0,4.0,97,0.00,,,0.00,meteohub,2013-04-03 12:09:00,
2013-04-03 05:14:00,45.7,45.0,30.10,NE,38,2.0,4.0,97,0.00,,,0.00,meteohub,2013-04-03 12:14:00,
2013-04-03 05:19:00,45.7,45.0,30.10,NE,38,3.0,4.0,97,0.00,,,0.00,meteohub,2013-04-03 12:19:00,
2013-04-03 05:24:00,45.3,44.6,30.10,NE,38,3.0,3.0,97,0.00,,,0.00,meteohub,2013-04-03 12:24:00,
2013-04-03 05:29:00,45.9,45.1,30.10,NE,38,2.0,4.0,97,0.00,,,0.00,meteohub,2013-04-03 12:29:00,
2013-04-03 05:34:00,46.2,45.7,30.09,NE,38,2.0,4.0,98,0.00,,,0.00,meteohub,2013-04-03 12:34:00,
2013-04-03 05:39:00,46.4,45.9,30.09,NE,38,2.0,4.0,98,0.00,,,0.00,meteohub,2013-04-03 12:39:00,
2013-04-03 05:44:00,46.2,45.5,30.09,NE,38,1.0,4.0,97,0.00,,,0.00,meteohub,2013-04-03 12:44:00,
2013-04-03 05:49:00,46.2,45.7,30.10,NE,38,2.0,4.0,98,0.00,,,0.00,meteohub,2013-04-03 12:49:00,
2013-04-03 05:54:00,46.2,45.7,30.09,NE,38,3.0,3.0,98,0.00,,,0.00,meteohub,2013-04-03 12:54:00,
2013-04-03 05:59:00,46.2,45.7,30.09,NE,36,2.0,4.0,98,0.00,,,0.00,meteohub,2013-04-03 12:59:00,
2013-04-03 06:04:00,46.6,46.0,30.09,NE,36,4.0,4.0,98,0.00,,,0.00,meteohub,2013-04-03 13:04:00,
2013-04-03 06:09:00,46.9,46.4,30.09,NE,36,2.0,5.0,98,0.00,,,0.00,meteohub,2013-04-03 13:09:00,
2013-04-03 06:14:00,46.8,46.2,30.10,NE,36,2.0,5.0,98,0.00,,,0.00,meteohub,2013-04-03 13:14:00,
2013-04-03 06:19:00,46.9,46.4,30.10,NE,36,1.0,5.0,98,0.00,,,0.00,meteohub,2013-04-03 13:19:00,
2013-04-03 06:24:00,47.5,46.9,30.10,NE,36,1.0,4.0,98,0.00,,,0.00,meteohub,2013-04-03 13:24:00,
2013-04-03 06:29:00,47.7,47.1,30.10,NE,36,3.0,3.0,98,0.00,,,0.00,meteohub,2013-04-03 13:29:00,
2013-04-03 06:34:00,47.8,47.3,30.10,NE,36,2.0,4.0,98,0.00,,,0.00,meteohub,2013-04-03 13:34:00,
2013-04-03 06:39:00,47.8,47.3,30.10,NE,36,2.0,4.0,98,0.00,,,0.00,meteohub,2013-04-03 13:39:00,
2013-04-03 06:44:00,48.0,47.5,30.10,NE,36,2.0,4.0,98,0.00,,,0.00,meteohub,2013-04-03 13:44:00,
2013-04-03 06:49:00,48.0,47.5,30.10,NE,36,1.0,4.0,98,0.00,,,0.00,meteohub,2013-04-03 13:49:00,
2013-04-03 06:54:00,48.2,47.7,30.11,NE,36,0.0,3.0,98,0.00,,,0.00,meteohub,2013-04-03 13:54:00,
2013-04-03 06:59:00,48.4,47.8,30.12,NE,36,1.0,3.0,98,0.00,,,0.00,meteohub,2013-04-03 13:59:00,
2013-04-03 07:04:00,48.4,47.8,30.11,NE,36,1.0,2.0,98,0.00,,,0.00,meteohub,2013-04-03 14:04:00,
2013-04-03 07:09:00,48.6,47.7,30.12,NE,36,1.0,3.0,97,0.00,,,0.00,meteohub,2013-04-03 14:09:00,
2013-04-03 07:14:00,48.6,48.0,30.11,NE,36,1.0,3.0,98,0.00,,,0.00,meteohub,2013-04-03 14:14:00,
2013-04-03 07:19:00,48.6,47.7,30.12,NE,36,2.0,3.0,97,0.00,,,0.00,meteohub,2013-04-03 14:19:00,
2013-04-03 07:24:00,48.6,47.7,30.12,NE,36,0.0,3.0,97,0.00,,,0.00,meteohub,2013-04-03 14:24:00,
2013-04-03 07:29:00,48.6,47.7,30.12,NE,36,0.0,3.0,97,0.00,,,0.00,meteohub,2013-04-03 14:29:00,
2013-04-03 07:34:00,48.4,47.5,30.12,NE,36,1.0,3.0,97,0.00,,,0.00,meteohub,2013-04-03 14:34:00,
2013-04-03 07:39:00,48.4,47.5,30.12,NE,36,0.0,2.0,97,0.00,,,0.00,meteohub,2013-04-03 14:39:00,
2013-04-03 07:44:00,48.4,47.5,30.12,NE,36,2.0,2.0,97,0.00,,,0.00,meteohub,2013-04-03 14:44:00,
2013-04-03 07:49:00,48.4,47.5,30.12,NE,36,1.0,2.0,97,0.00,,,0.00,meteohub,2013-04-03 14:49:00,
2013-04-03 07:54:00,48.6,47.7,30.12,NE,36,1.0,3.0,97,0.00,,,0.00,meteohub,2013-04-03 14:54:00,
2013-04-03 07:59:00,48.6,47.7,30.12,NE,36,2.0,4.0,97,0.00,,,0.00,meteohub,2013-04-03 14:59:00,
2013-04-03 08:04:00,49.3,48.7,30.12,NE,36,3.0,4.0,98,0.00,,,0.00,meteohub,2013-04-03 15:04:00,
2013-04-03 08:09:00,49.8,49.3,30.12,NE,36,4.0,4.0,98,0.00,,,0.00,meteohub,2013-04-03 15:09:00,
2013-04-03 08:14:00,50.7,50.2,30.12,NE,36,2.0,4.0,98,0.00,,,0.00,meteohub,2013-04-03 15:14:00,
2013-04-03 08:19:00,51.3,50.7,30.12,NE,36,0.0,4.0,98,0.00,,,0.00,meteohub,2013-04-03 15:19:00,
2013-04-03 08:24:00,51.8,50.9,30.13,NE,36,3.0,4.0,97,0.00,,,0.00,meteohub,2013-04-03 15:24:00,
2013-04-03 08:30:00,52.3,50.9,30.13,NE,36,2.0,4.0,95,0.00,,,0.00,meteohub,2013-04-03 15:30:00,
2013-04-03 08:35:00,52.9,50.9,30.13,NE,36,1.0,4.0,93,0.00,,,0.00,meteohub,2013-04-03 15:35:00,
2013-04-03 08:40:00,53.2,50.7,30.13,NE,36,2.0,4.0,91,0.00,,,0.00,meteohub,2013-04-03 15:40:00,
2013-04-03 08:45:00,53.8,50.5,30.12,NE,36,2.0,4.0,89,0.00,,,0.00,meteohub,2013-04-03 15:45:00,
2013-04-03 08:50:00,54.1,50.4,30.12,NE,46,2.0,4.0,87,0.00,,,0.00,meteohub,2013-04-03 15:50:00,
2013-04-03 08:55:00,54.7,50.2,30.12,NE,46,2.0,5.0,85,0.00,,,0.00,meteohub,2013-04-03 15:55:00,
2013-04-03 09:00:00,54.9,50.4,30.12,NE,46,4.0,5.0,85,0.00,,,0.00,meteohub,2013-04-03 16:00:00,
2013-04-03 09:05:00,55.0,50.0,30.12,NE,52,2.0,5.0,83,0.00,,,0.00,meteohub,2013-04-03 16:05:00,
2013-04-03 09:10:00,55.6,50.5,30.12,NE,50,3.0,6.0,83,0.00,,,0.00,meteohub,2013-04-03 16:10:00,
2013-04-03 09:15:00,55.9,50.5,30.12,NE,39,0.0,6.0,82,0.00,,,0.00,meteohub,2013-04-03 16:15:00,
2013-04-03 09:20:00,56.1,50.7,30.13,NE,39,3.0,5.0,82,0.00,,,0.00,meteohub,2013-04-03 16:20:00,
2013-04-03 09:25:00,56.7,51.3,30.12,NNE,33,4.0,5.0,82,0.00,,,0.00,meteohub,2013-04-03 16:25:00,
2013-04-03 09:30:00,57.0,50.9,30.12,NNE,30,3.0,7.0,80,0.00,,,0.00,meteohub,2013-04-03 16:30:00,
2013-04-03 09:35:00,57.2,51.1,30.13,NNE,26,3.0,7.0,80,0.00,,,0.00,meteohub,2013-04-03 16:35:00,
2013-04-03 09:40:00,57.6,51.4,30.13,NNE,26,2.0,7.0,80,0.00,,,0.00,meteohub,2013-04-03 16:40:00,
2013-04-03 09:45:00,57.6,51.1,30.13,NNE,26,2.0,6.0,79,0.00,,,0.00,meteohub,2013-04-03 16:45:00,
2013-04-03 09:50:00,57.9,51.4,30.13,NNE,26,3.0,5.0,79,0.00,,,0.00,meteohub,2013-04-03 16:50:00,
2013-04-03 09:55:00,58.3,51.8,30.13,NNE,29,3.0,5.0,79,0.00,,,0.00,meteohub,2013-04-03 16:55:00,
2013-04-03 10:00:00,58.8,52.3,30.13,NE,40,4.0,6.0,79,0.00,,,0.00,meteohub,2013-04-03 17:00:00,
2013-04-03 10:05:00,59.4,52.5,30.13,NE,53,4.0,6.0,78,0.00,,,0.00,meteohub,2013-04-03 17:05:00,
2013-04-03 10:10:00,59.5,52.0,30.13,NE,36,5.0,6.0,76,0.00,,,0.00,meteohub,2013-04-03 17:10:00,
2013-04-03 10:15:00,59.5,52.3,30.12,ENE,59,5.0,6.0,77,0.00,,,0.00,meteohub,2013-04-03 17:15:00,
2013-04-03 10:20:00,59.4,51.4,30.12,NE,55,4.0,7.0,75,0.00,,,0.00,meteohub,2013-04-03 17:20:00,
2013-04-03 10:25:00,59.5,51.3,30.12,NE,46,4.0,7.0,74,0.00,,,0.00,meteohub,2013-04-03 17:25:00,
2013-04-03 10:30:00,59.7,51.8,30.13,NE,51,4.0,7.0,75,0.00,,,0.00,meteohub,2013-04-03 17:30:00,
2013-04-03 10:35:00,59.9,52.0,30.13,NNE,15,4.0,6.0,75,0.00,,,0.00,meteohub,2013-04-03 17:35:00,
2013-04-03 10:40:00,60.1,51.8,30.13,NE,40,3.0,8.0,74,0.00,,,0.00,meteohub,2013-04-03 17:40:00,
2013-04-03 10:45:00,59.9,51.6,30.13,ENE,61,2.0,8.0,74,0.00,,,0.00,meteohub,2013-04-03 17:45:00,
2013-04-03 10:50:00,60.1,51.8,30.13,NE,49,4.0,8.0,74,0.00,,,0.00,meteohub,2013-04-03 17:50:00,
2013-04-03 10:55:00,60.4,52.2,30.13,NE,49,3.0,5.0,74,0.00,,,0.00,meteohub,2013-04-03 17:55:00,
2013-04-03 11:00:00,61.0,53.1,30.13,ENE,67,3.0,5.0,75,0.00,,,0.00,meteohub,2013-04-03 18:00:00,
2013-04-03 11:05:00,61.5,52.3,30.13,NE,54,3.0,6.0,72,0.00,,,0.00,meteohub,2013-04-03 18:05:00,
2013-04-03 11:10:00,61.9,52.7,30.13,NNE,24,3.0,6.0,72,0.00,,,0.00,meteohub,2013-04-03 18:10:00,
2013-04-03 11:16:00,62.2,53.1,30.12,NNE,26,5.0,6.0,72,0.00,,,0.00,meteohub,2013-04-03 18:16:00,
2013-04-03 11:21:00,62.6,54.1,30.13,NNE,25,4.0,7.0,74,0.00,,,0.00,meteohub,2013-04-03 18:21:00,
2013-04-03 11:27:00,63.3,53.4,30.12,North,5,4.0,7.0,70,0.00,,,0.00,meteohub,2013-04-03 18:27:00,
2013-04-03 11:32:00,63.7,52.9,30.12,NNE,21,1.0,7.0,68,0.00,,,0.00,meteohub,2013-04-03 18:32:00,
2013-04-03 11:37:00,64.2,54.7,30.12,NNE,20,5.0,8.0,71,0.00,,,0.00,meteohub,2013-04-03 18:37:00,
2013-04-03 11:42:00,64.6,54.5,30.12,NE,40,5.0,8.0,70,0.00,,,0.00,meteohub,2013-04-03 18:42:00,
2013-04-03 11:47:00,64.8,54.0,30.12,NNE,28,3.0,10.0,68,0.00,,,0.00,meteohub,2013-04-03 18:47:00,
2013-04-03 11:52:00,64.2,54.7,30.12,NNE,29,2.0,10.0,71,0.00,,,0.00,meteohub,2013-04-03 18:52:00,
2013-04-03 11:57:00,64.2,55.0,30.12,South,183,4.0,10.0,72,0.00,,,0.00,meteohub,2013-04-03 18:57:00,
2013-04-03 12:02:00,64.2,55.4,30.12,SW,221,3.0,9.0,73,0.00,,,0.00,meteohub,2013-04-03 19:02:00,
2013-04-03 12:07:00,63.9,55.8,30.12,SW,215,4.0,5.0,75,0.00,,,0.00,meteohub,2013-04-03 19:07:00,
2013-04-03 12:12:00,64.2,55.8,30.11,WSW,251,3.0,5.0,74,0.00,,,0.00,meteohub,2013-04-03 19:12:00,
2013-04-03 12:17:00,64.8,55.9,30.11,SW,232,4.0,6.0,73,0.00,,,0.00,meteohub,2013-04-03 19:17:00,
2013-04-03 12:22:00,64.9,56.1,30.11,SW,221,2.0,7.0,73,0.00,,,0.00,meteohub,2013-04-03 19:22:00,
2013-04-03 12:27:00,64.9,56.1,30.10,South,191,7.0,7.0,73,0.00,,,0.00,meteohub,2013-04-03 19:27:00,
2013-04-03 12:32:00,64.8,55.6,30.10,SSW,206,4.0,8.0,72,0.00,,,0.00,meteohub,2013-04-03 19:32:00,
2013-04-03 12:37:00,64.6,55.4,30.10,South,190,0.0,8.0,72,0.00,,,0.00,meteohub,2013-04-03 19:37:00,
2013-04-03 12:42:00,64.4,55.6,30.10,SSW,196,4.0,8.0,73,0.00,,,0.00,meteohub,2013-04-03 19:42:00,
2013-04-03 12:47:00,64.9,56.1,30.10,SSW,197,5.0,7.0,73,0.00,,,0.00,meteohub,2013-04-03 19:47:00,
2013-04-03 12:52:00,65.1,56.3,30.09,SSE,149,5.0,9.0,73,0.00,,,0.00,meteohub,2013-04-03 19:52:00,
2013-04-03 12:57:00,65.1,56.3,30.09,South,190,3.0,9.0,73,0.00,,,0.00,meteohub,2013-04-03 19:57:00,
2013-04-03 13:02:00,65.5,57.4,30.09,SW,232,4.0,9.0,75,0.00,,,0.00,meteohub,2013-04-03 20:02:00,
2013-04-03 13:08:00,65.5,56.3,30.09,South,191,4.0,8.0,72,0.00,,,0.00,meteohub,2013-04-03 20:08:00,
2013-04-03 13:13:00,65.5,55.8,30.08,WSW,250,4.0,8.0,71,0.00,,,0.00,meteohub,2013-04-03 20:13:00,
2013-04-03 13:18:00,64.9,56.1,30.08,South,173,2.0,8.0,73,0.00,,,0.00,meteohub,2013-04-03 20:18:00,
2013-04-03 13:23:00,64.8,55.2,30.08,West,265,4.0,8.0,71,0.00,,,0.00,meteohub,2013-04-03 20:23:00,
2013-04-03 13:28:00,64.9,55.8,30.08,SW,223,2.0,8.0,72,0.00,,,0.00,meteohub,2013-04-03 20:28:00,
2013-04-03 13:33:00,64.8,55.6,30.08,SW,235,2.0,8.0,72,0.00,,,0.00,meteohub,2013-04-03 20:33:00,
2013-04-03 13:38:00,65.1,55.9,30.07,SSW,196,5.0,8.0,72,0.00,,,0.00,meteohub,2013-04-03 20:38:00,
2013-04-03 13:43:00,65.5,55.4,30.07,WSW,248,6.0,9.0,70,0.00,,,0.00,meteohub,2013-04-03 20:43:00,
2013-04-03 13:48:00,64.9,54.9,30.07,SSW,206,5.0,9.0,70,0.00,,,0.00,meteohub,2013-04-03 20:48:00,
2013-04-03 13:53:00,64.9,54.9,30.07,SW,234,8.0,9.0,70,0.00,,,0.00,meteohub,2013-04-03 20:53:00,
2013-04-03 13:58:00,65.1,55.0,30.07,South,184,4.0,10.0,70,0.00,,,0.00,meteohub,2013-04-03 20:58:00,
2013-04-03 14:03:00,65.1,54.7,30.06,WSW,243,5.0,10.0,69,0.00,,,0.00,meteohub,2013-04-03 21:03:00,
2013-04-03 14:08:00,65.5,55.0,30.06,SW,225,5.0,10.0,69,0.00,,,0.00,meteohub,2013-04-03 21:08:00,
2013-04-03 14:13:00,65.7,55.9,30.06,SW,225,4.0,8.0,71,0.00,,,0.00,meteohub,2013-04-03 21:13:00,
2013-04-03 14:18:00,65.1,54.0,30.06,SW,221,5.0,8.0,67,0.00,,,0.00,meteohub,2013-04-03 21:18:00,
2013-04-03 14:23:00,64.6,54.1,30.06,SSW,208,4.0,8.0,69,0.00,,,0.00,meteohub,2013-04-03 21:23:00,
2013-04-03 14:28:00,64.9,54.9,30.06,SSW,213,6.0,7.0,70,0.00,,,0.00,meteohub,2013-04-03 21:28:00,
2013-04-03 14:33:00,65.5,55.4,30.06,SW,228,5.0,8.0,70,0.00,,,0.00,meteohub,2013-04-03 21:33:00,
2013-04-03 14:38:00,65.8,55.4,30.05,SSW,198,7.0,8.0,69,0.00,,,0.00,meteohub,2013-04-03 21:38:00,
2013-04-03 14:43:00,65.8,55.4,30.05,South,174,2.0,8.0,69,0.00,,,0.00,meteohub,2013-04-03 21:43:00,
2013-04-03 14:48:00,66.4,55.6,30.05,SW,217,6.0,8.0,68,0.00,,,0.00,meteohub,2013-04-03 21:48:00,
2013-04-03 14:53:00,66.6,55.2,30.05,WSW,238,4.0,8.0,67,0.00,,,0.00,meteohub,2013-04-03 21:53:00,
2013-04-03 14:58:00,66.6,54.9,30.05,SSW,193,0.0,9.0,66,0.00,,,0.00,meteohub,2013-04-03 21:58:00,
2013-04-03 15:03:00,67.3,55.9,30.05,WSW,250,3.0,9.0,67,0.00,,,0.00,meteohub,2013-04-03 22:03:00,
2013-04-03 15:08:00,67.3,57.6,30.04,WSW,252,4.0,9.0,71,0.00,,,0.00,meteohub,2013-04-03 22:08:00,
2013-04-03 15:13:00,68.0,56.3,30.04,South,188,7.0,7.0,66,0.00,,,0.00,meteohub,2013-04-03 22:13:00,
2013-04-03 15:18:00,68.4,55.2,30.04,SSW,209,0.0,8.0,63,0.00,,,0.00,meteohub,2013-04-03 22:18:00,
2013-04-03 15:23:00,68.4,55.2,30.04,SSW,206,4.0,8.0,63,0.00,,,0.00,meteohub,2013-04-03 22:23:00,
2013-04-03 15:28:00,68.5,56.7,30.04,NE,45,0.0,8.0,66,0.00,,,0.00,meteohub,2013-04-03 22:28:00,
2013-04-03 15:33:00,68.5,57.2,30.04,West,260,2.0,8.0,67,0.00,,,0.00,meteohub,2013-04-03 22:33:00,
2013-04-03 15:38:00,68.4,56.1,30.04,WSW,247,5.0,8.0,65,0.00,,,0.00,meteohub,2013-04-03 22:38:00,
2013-04-03 15:43:00,68.2,55.6,30.04,SW,223,8.0,8.0,64,0.00,,,0.00,meteohub,2013-04-03 22:43:00,
2013-04-03 15:48:00,67.6,55.9,30.04,SW,225,3.0,9.0,66,0.00,,,0.00,meteohub,2013-04-03 22:48:00,
2013-04-03 15:53:00,68.0,56.3,30.04,South,185,5.0,9.0,66,0.00,,,0.00,meteohub,2013-04-03 22:53:00,
2013-04-03 15:58:00,67.8,56.8,30.04,WSW,247,6.0,9.0,68,0.00,,,0.00,meteohub,2013-04-03 22:58:00,
2013-04-03 16:03:00,68.2,56.8,30.04,WSW,244,3.0,11.0,67,0.00,,,0.00,meteohub,2013-04-03 23:03:00,
2013-04-03 16:08:00,68.4,55.8,30.03,South,191,3.0,11.0,64,0.00,,,0.00,meteohub,2013-04-03 23:08:00,
2013-04-03 16:13:00,68.0,55.8,30.03,West,265,6.0,11.0,65,0.00,,,0.00,meteohub,2013-04-03 23:13:00,
2013-04-03 16:18:00,68.2,55.9,30.03,SW,215,3.0,10.0,65,0.00,,,0.00,meteohub,2013-04-03 23:18:00,
2013-04-03 16:24:00,67.6,55.4,30.03,SSW,194,0.0,11.0,65,0.00,,,0.00,meteohub,2013-04-03 23:24:00,
2013-04-03 16:29:00,67.6,55.9,30.02,SW,219,4.0,11.0,66,0.00,,,0.00,meteohub,2013-04-03 23:29:00,
2013-04-03 16:34:00,67.5,54.9,30.02,NW,315,2.0,11.0,64,0.00,,,0.00,meteohub,2013-04-03 23:34:00,
2013-04-03 16:39:00,67.5,55.8,30.02,SSW,202,0.0,10.0,66,0.00,,,0.00,meteohub,2013-04-03 23:39:00,
2013-04-03 16:44:00,67.6,55.0,30.02,SW,217,5.0,10.0,64,0.00,,,0.00,meteohub,2013-04-03 23:44:00,
2013-04-03 16:49:00,67.8,54.7,30.02,SW,231,3.0,7.0,63,0.00,,,0.00,meteohub,2013-04-03 23:49:00,
2013-04-03 16:54:00,67.8,52.9,30.01,West,273,3.0,9.0,59,0.00,,,0.00,meteohub,2013-04-03 23:54:00,
2013-04-03 16:59:00,67.8,52.0,30.01,SW,220,3.0,10.0,57,0.00,,,0.00,meteohub,2013-04-03 23:59:00,
2013-04-03 17:04:00,68.4,52.0,30.01,SSW,198,0.0,10.0,56,0.00,,,0.00,meteohub,2013-04-04 00:04:00,
2013-04-03 17:09:00,68.7,52.3,30.00,NNW,338,3.0,10.0,56,0.00,,,0.00,meteohub,2013-04-04 00:09:00,
2013-04-03 17:14:00,68.5,51.3,30.01,SW,232,4.0,8.0,54,0.00,,,0.00,meteohub,2013-04-04 00:14:00,
2013-04-03 17:19:00,68.5,51.8,30.01,SW,221,3.0,8.0,55,0.00,,,0.00,meteohub,2013-04-04 00:19:00,
2013-04-03 17:24:00,68.2,50.4,30.01,SSW,206,3.0,9.0,53,0.00,,,0.00,meteohub,2013-04-04 00:24:00,
2013-04-03 17:29:00,67.5,50.2,30.01,WSW,240,1.0,9.0,54,0.00,,,0.00,meteohub,2013-04-04 00:29:00,
2013-04-03 17:34:00,67.3,49.1,30.01,WSW,249,1.0,9.0,52,0.00,,,0.00,meteohub,2013-04-04 00:34:00,
2013-04-03 17:40:00,67.1,49.5,30.01,South,188,1.0,8.0,53,0.00,,,0.00,meteohub,2013-04-04 00:40:00,
2013-04-03 17:45:00,67.3,51.1,30.01,West,261,3.0,8.0,56,0.00,,,0.00,meteohub,2013-04-04 00:45:00,
2013-04-03 17:50:00,67.6,49.8,30.00,SSW,193,1.0,8.0,53,0.00,,,0.00,meteohub,2013-04-04 00:50:00,
2013-04-03 17:55:00,67.6,50.4,30.00,SSW,208,4.0,7.0,54,0.00,,,0.00,meteohub,2013-04-04 00:55:00,
2013-04-03 18:00:00,67.5,49.8,30.00,SSW,194,5.0,8.0,53,0.00,,,0.00,meteohub,2013-04-04 01:00:00,
2013-04-03 18:05:00,67.3,50.5,30.00,SSW,198,7.0,8.0,55,0.00,,,0.00,meteohub,2013-04-04 01:05:00,
2013-04-03 18:10:00,66.7,50.5,30.00,South,178,0.0,9.0,56,0.00,,,0.00,meteohub,2013-04-04 01:10:00,
2013-04-03 18:15:00,66.7,51.1,30.00,West,259,3.0,9.0,57,0.00,,,0.00,meteohub,2013-04-04 01:15:00,
2013-04-03 18:20:00,66.6,50.9,30.00,West,261,2.0,9.0,57,0.00,,,0.00,meteohub,2013-04-04 01:20:00,
2013-04-03 18:25:00,66.0,50.9,30.00,SW,225,2.0,6.0,58,0.00,,,0.00,meteohub,2013-04-04 01:25:00,
2013-04-03 18:30:00,65.8,50.7,30.00,SW,228,2.0,6.0,58,0.00,,,0.00,meteohub,2013-04-04 01:30:00,
2013-04-03 18:35:00,65.5,50.7,30.00,West,265,0.0,6.0,59,0.00,,,0.00,meteohub,2013-04-04 01:35:00,
2013-04-03 18:40:00,64.9,49.3,30.00,SSW,208,0.0,4.0,57,0.00,,,0.00,meteohub,2013-04-04 01:40:00,
2013-04-03 18:45:00,64.8,50.2,30.00,SSW,208,0.0,4.0,59,0.00,,,0.00,meteohub,2013-04-04 01:45:00,
2013-04-03 18:50:00,64.4,51.1,30.00,SSW,208,1.0,3.0,62,0.00,,,0.00,meteohub,2013-04-04 01:50:00,
2013-04-03 18:55:00,64.0,51.6,30.00,SSW,208,2.0,2.0,64,0.00,,,0.00,meteohub,2013-04-04 01:55:00,
2013-04-03 19:00:00,63.9,50.2,30.00,SSW,208,0.0,3.0,61,0.00,,,0.00,meteohub,2013-04-04 02:00:00,
2013-04-03 19:05:00,63.7,50.9,30.00,WSW,247,0.0,5.0,63,0.00,,,0.00,meteohub,2013-04-04 02:05:00,
2013-04-03 19:10:00,63.5,51.4,30.00,WSW,247,2.0,5.0,65,0.00,,,0.00,meteohub,2013-04-04 02:10:00,
2013-04-03 19:16:00,63.3,51.4,29.99,SW,219,2.0,6.0,65,0.00,,,0.00,meteohub,2013-04-04 02:16:00,
2013-04-03 19:21:00,63.1,51.3,29.99,SW,219,2.0,6.0,65,0.00,,,0.00,meteohub,2013-04-04 02:21:00,
2013-04-03 19:26:00,63.0,50.5,29.99,SW,215,1.0,6.0,64,0.00,,,0.00,meteohub,2013-04-04 02:26:00,
2013-04-03 19:31:00,62.8,50.9,29.99,SW,215,1.0,5.0,65,0.00,,,0.00,meteohub,2013-04-04 02:31:00,
2013-04-03 19:36:00,62.4,50.9,29.99,SW,215,1.0,4.0,66,0.00,,,0.00,meteohub,2013-04-04 02:36:00,
2013-04-03 19:41:00,62.2,51.6,29.99,SW,215,2.0,4.0,68,0.00,,,0.00,meteohub,2013-04-04 02:41:00,
2013-04-03 19:46:00,61.9,51.3,29.99,SW,215,2.0,3.0,68,0.00,,,0.00,meteohub,2013-04-04 02:46:00,
2013-04-03 19:51:00,61.3,51.1,29.99,SW,215,4.0,4.0,69,0.00,,,0.00,meteohub,2013-04-04 02:51:00,
2013-04-03 19:56:00,61.0,50.7,29.99,SW,215,2.0,4.0,69,0.00,,,0.00,meteohub,2013-04-04 02:56:00,
2013-04-03 20:01:00,60.6,51.1,29.99,SW,215,3.0,5.0,71,0.00,,,0.00,meteohub,2013-04-04 03:01:00,
2013-04-03 20:06:00,60.4,51.4,29.99,SW,215,2.0,5.0,72,0.00,,,0.00,meteohub,2013-04-04 03:06:00,
2013-04-03 20:11:00,60.3,51.3,29.99,SW,222,4.0,5.0,72,0.00,,,0.00,meteohub,2013-04-04 03:11:00,
2013-04-03 20:16:00,59.7,51.4,29.99,WSW,246,3.0,7.0,74,0.00,,,0.00,meteohub,2013-04-04 03:16:00,
2013-04-03 20:21:00,59.5,51.6,29.99,SSW,204,2.0,7.0,75,0.00,,,0.00,meteohub,2013-04-04 03:21:00,
2013-04-03 20:26:00,59.2,52.0,29.99,SSW,195,4.0,7.0,77,0.00,,,0.00,meteohub,2013-04-04 03:26:00,
2013-04-03 20:31:00,58.6,51.8,29.99,SSW,200,5.0,6.0,78,0.00,,,0.00,meteohub,2013-04-04 03:31:00,
2013-04-03 20:36:00,57.9,51.4,29.99,SSW,204,4.0,7.0,79,0.00,,,0.00,meteohub,2013-04-04 03:36:00,
2013-04-03 20:41:00,57.6,51.8,29.99,SSW,198,6.0,7.0,81,0.00,,,0.00,meteohub,2013-04-04 03:41:00,
2013-04-03 20:47:00,57.0,51.6,29.99,SSW,196,4.0,7.0,82,0.00,,,0.00,meteohub,2013-04-04 03:47:00,
2013-04-03 20:52:00,56.7,51.8,29.99,SSW,196,3.0,6.0,84,0.00,,,0.00,meteohub,2013-04-04 03:52:00,
2013-04-03 20:57:00,56.5,52.0,29.99,SSW,196,4.0,6.0,85,0.00,,,0.00,meteohub,2013-04-04 03:57:00,
2013-04-03 21:00:00,56.1,51.6,29.99,SSW,196,3.0,5.0,85,0.00,,,0.00,meteohub,2013-04-04 04:00:00,
2013-04-03 21:01:00,56.1,51.6,29.99,SSW,196,3.0,5.0,85,0.00,,,0.00,meteohub,2013-04-04 04:01:00,
2013-04-03 21:06:00,55.9,51.8,29.99,SSW,196,5.0,5.0,86,0.00,,,0.00,meteohub,2013-04-04 04:06:00,
2013-04-03 21:11:00,55.8,51.6,30.00,SSW,208,6.0,6.0,86,0.00,,,0.00,meteohub,2013-04-04 04:11:00,
2013-04-03 21:16:00,55.4,51.6,30.00,SSW,202,4.0,6.0,87,0.00,,,0.00,meteohub,2013-04-04 04:16:00,
2013-04-03 21:22:00,55.2,51.8,30.00,SSW,198,3.0,6.0,88,0.00,,,0.00,meteohub,2013-04-04 04:22:00,
2013-04-03 21:27:00,55.0,51.6,30.00,SSW,196,3.0,6.0,88,0.00,,,0.00,meteohub,2013-04-04 04:27:00,
2013-04-03 21:32:00,54.7,51.4,30.01,SSW,202,3.0,6.0,89,0.00,,,0.00,meteohub,2013-04-04 04:32:00,
2013-04-03 21:37:00,54.5,51.6,30.01,SSW,197,3.0,5.0,90,0.00,,,0.00,meteohub,2013-04-04 04:37:00,
2013-04-03 21:42:00,54.1,51.3,30.00,South,178,3.0,5.0,90,0.00,,,0.00,meteohub,2013-04-04 04:42:00,
2013-04-03 21:47:00,54.0,51.4,30.01,South,178,4.0,5.0,91,0.00,,,0.00,meteohub,2013-04-04 04:47:00,
2013-04-03 21:52:00,54.0,51.4,30.01,South,185,3.0,5.0,91,0.00,,,0.00,meteohub,2013-04-04 04:52:00,
2013-04-03 21:57:00,53.8,51.3,30.01,SSW,200,3.0,6.0,91,0.00,,,0.00,meteohub,2013-04-04 04:57:00,
2013-04-03 22:02:00,53.8,51.4,30.01,SSW,204,3.0,6.0,92,0.00,,,0.00,meteohub,2013-04-04 05:02:00,
2013-04-03 22:07:00,53.4,50.9,30.01,SSW,198,3.0,7.0,91,0.00,,,0.00,meteohub,2013-04-04 05:07:00,
2013-04-03 22:12:00,53.4,51.1,30.01,SSW,198,3.0,7.0,92,0.00,,,0.00,meteohub,2013-04-04 05:12:00,
2013-04-03 22:17:00,53.2,50.9,30.01,SSW,198,3.0,7.0,92,0.00,,,0.00,meteohub,2013-04-04 05:17:00,
2013-04-03 22:22:00,53.1,50.7,30.00,SSW,198,3.0,5.0,92,0.00,,,0.00,meteohub,2013-04-04 05:22:00,
2013-04-03 22:27:00,53.1,50.7,30.00,SSW,198,3.0,4.0,92,0.00,,,0.00,meteohub,2013-04-04 05:27:00,
2013-04-03 22:32:00,52.9,50.9,30.00,SSW,198,4.0,5.0,93,0.00,,,0.00,meteohub,2013-04-04 05:32:00,
2013-04-03 22:37:00,52.7,50.7,30.00,SSW,198,3.0,5.0,93,0.00,,,0.00,meteohub,2013-04-04 05:37:00,
2013-04-03 22:42:00,52.5,50.5,30.00,SSW,198,3.0,5.0,93,0.00,,,0.00,meteohub,2013-04-04 05:42:00,
2013-04-03 22:47:00,52.5,50.5,30.01,SSW,198,3.0,5.0,93,0.00,,,0.00,meteohub,2013-04-04 05:47:00,
2013-04-03 22:52:00,52.3,50.4,30.01,SSW,198,3.0,5.0,93,0.00,,,0.00,meteohub,2013-04-04 05:52:00,
2013-04-03 22:57:00,52.3,50.4,30.00,SSW,198,3.0,5.0,93,0.00,,,0.00,meteohub,2013-04-04 05:57:00,
2013-04-03 23:02:00,52.2,50.2,30.00,SSW,198,2.0,5.0,93,0.00,,,0.00,meteohub,2013-04-04 06:02:00,
2013-04-03 23:07:00,52.2,50.5,30.00,SSW,199,5.0,5.0,94,0.00,,,0.00,meteohub,2013-04-04 06:07:00,
2013-04-03 23:12:00,52.0,50.0,30.00,South,186,3.0,5.0,93,0.00,,,0.00,meteohub,2013-04-04 06:12:00,
2013-04-03 23:17:00,52.0,50.0,30.00,South,186,2.0,5.0,93,0.00,,,0.00,meteohub,2013-04-04 06:17:00,
2013-04-03 23:22:00,52.0,50.0,30.00,South,189,2.0,5.0,93,0.00,,,0.00,meteohub,2013-04-04 06:22:00,
2013-04-03 23:27:00,51.8,49.8,30.00,South,189,3.0,5.0,93,0.00,,,0.00,meteohub,2013-04-04 06:27:00,
2013-04-03 23:32:00,51.6,49.6,29.99,South,189,3.0,4.0,93,0.00,,,0.00,meteohub,2013-04-04 06:32:00,
2013-04-03 23:37:00,51.6,49.5,29.99,SSW,194,2.0,4.0,92,0.00,,,0.00,meteohub,2013-04-04 06:37:00,
2013-04-03 23:42:00,51.6,48.7,29.99,SW,220,3.0,4.0,90,0.00,,,0.00,meteohub,2013-04-04 06:42:00,
2013-04-03 23:47:00,51.6,48.2,29.99,SW,217,2.0,4.0,88,0.00,,,0.00,meteohub,2013-04-04 06:47:00,
2013-04-03 23:52:00,51.6,47.5,29.99,SSW,211,4.0,4.0,86,0.00,,,0.00,meteohub,2013-04-04 06:52:00,
2013-04-03 23:57:00,51.8,47.5,29.99,SSW,204,3.0,7.0,85,0.00,,,0.00,meteohub,2013-04-04 06:57:00,